Terminal Aerodrome Forecast
Issued by NWS

Home | Current Version | Previous Version | Text Only | Print | Product List | Glossary On
Versions: 1 2 3 4 5 6 7 8 9 10 11 12 13 14 15 16 17 18 19 20 21 22 23 24
000
FTUS41 KCAR 311120
TAFPQI
TAF
KPQI 311120Z 3112/0112 26007KT P6SM SKC
     FM311300 27010KT P6SM SCT070
     FM311600 28011KT P6SM VCSH BKN035
     FM311800 31011G18KT 6SM -SHRA BKN040
     FM312300 31009KT P6SM SCT060=

USA.gov is the U.S. government's official web portal to all federal, state and local government web resources and services.